Time;durP1;ratioP1;P1;durP2;ratioP2;P2;SDS_P1;SDS_P2;PMS_P1;PMS_P2;Temp;Humidity;BMP_temperature;BMP_pressure;BME280_temperature;BME280_humidity;BME280_pressure;Samples;Min_cycle;Max_cycle;Signal;HPM_P1;HPM_P2
2023/06/15 00:00:45;;;;;;;16.92;8.02;;;;;;;22.41;41.56;98403.13;5015066;28;20025;-47
2023/06/15 00:03:11;;;;;;;14.02;8.55;;;;;;;22.14;41.81;98395.66;5015029;28;20022;-46
2023/06/15 00:05:37;;;;;;;22.73;17.95;;;;;;;22.07;42.54;98398.69;4997123;28;20507;-47
2023/06/15 00:08:03;;;;;;;15.50;9.45;;;;;;;22.16;42.80;98406.88;4997291;28;20466;-46
2023/06/15 00:10:28;;;;;;;25.90;16.45;;;;;;;22.17;42.47;98403.09;5014896;28;20057;-47
2023/06/15 00:12:54;;;;;;;12.25;8.13;;;;;;;22.16;42.78;98403.41;5014895;28;20028;-47
2023/06/15 00:15:20;;;;;;;23.55;12.73;;;;;;;21.98;42.56;98402.25;5014809;28;20064;-46
2023/06/15 00:17:46;;;;;;;17.80;8.90;;;;;;;21.72;43.14;98411.25;5014823;28;20026;-46
2023/06/15 00:20:13;;;;;;;10.07;7.20;;;;;;;21.54;43.41;98417.28;5014693;28;20032;-46
2023/06/15 00:22:41;;;;;;;18.25;14.45;;;;;;;21.50;44.04;98405.56;4997005;28;20553;-46
2023/06/15 00:25:07;;;;;;;8.73;7.70;;;;;;;21.60;44.13;98418.84;5014521;28;20026;-46
2023/06/15 00:27:34;;;;;;;25.30;16.17;;;;;;;21.64;43.79;98417.22;5014580;28;20033;-46
2023/06/15 00:30:00;;;;;;;16.70;10.60;;;;;;;21.54;43.95;98414.63;5014567;28;20030;-46
2023/06/15 00:32:25;;;;;;;10.77;7.03;;;;;;;21.46;44.01;98418.69;4997110;28;20549;-46
2023/06/15 00:34:51;;;;;;;8.77;6.65;;;;;;;21.37;44.36;98416.84;5014502;28;20064;-46
2023/06/15 00:37:16;;;;;;;21.60;13.00;;;;;;;21.32;44.52;98423.81;4996754;28;20026;-46
2023/06/15 00:39:42;;;;;;;7.40;5.40;;;;;;;21.08;44.72;98418.34;5014317;28;20582;-46
2023/06/15 00:42:08;;;;;;;20.10;9.88;;;;;;;20.72;45.50;98423.84;5013046;28;20022;-46
2023/06/15 00:44:33;;;;;;;6.50;4.97;;;;;;;20.61;46.00;98424.97;5014297;28;20086;-46
2023/06/15 00:46:59;;;;;;;20.85;10.75;;;;;;;20.32;46.51;98428.25;4996519;28;20108;-46
2023/06/15 00:49:26;;;;;;;11.38;7.82;;;;;;;20.19;47.03;98426.13;4996609;28;20570;-46
2023/06/15 00:51:53;;;;;;;9.15;5.65;;;;;;;20.23;46.99;98426.41;4996553;28;20509;-46
2023/06/15 00:54:23;;;;;;;16.65;7.13;;;;;;;20.00;47.05;98428.56;4996435;28;20025;-46
2023/06/15 00:56:50;;;;;;;22.38;15.38;;;;;;;19.81;47.86;98425.63;5014050;28;20030;-46
2023/06/15 00:59:19;;;;;;;16.50;11.80;;;;;;;19.92;48.29;98421.91;5014018;28;20064;-46
2023/06/15 01:01:47;;;;;;;5.75;4.57;;;;;;;20.04;47.51;98428.81;4996422;28;20022;-46
2023/06/15 01:04:14;;;;;;;12.82;5.70;;;;;;;19.91;47.46;98427.50;5013831;28;20084;-46
2023/06/15 01:06:51;;;;;;;10.93;5.40;;;;;;;19.64;47.74;98425.88;5013456;28;20056;-46
2023/06/15 01:09:20;;;;;;;11.43;6.82;;;;;;;19.22;48.91;98431.41;5014071;28;20455;-46
2023/06/15 01:11:47;;;;;;;29.55;12.75;;;;;;;19.16;49.47;98434.06;5013789;28;20108;-46
2023/06/15 01:14:13;;;;;;;10.52;9.52;;;;;;;18.95;50.04;98435.88;4996016;28;20376;-46
2023/06/15 01:16:43;;;;;;;10.10;6.18;;;;;;;18.77;50.69;98436.28;4996064;28;20061;-46
2023/06/15 01:19:34;;;;;;;13.13;5.50;;;;;;;18.72;50.79;98441.59;5013937;28;20148;-46
2023/06/15 01:22:29;;;;;;;12.52;6.45;;;;;;;18.65;51.23;98441.00;5013623;28;20033;-46
2023/06/15 01:25:10;;;;;;;12.70;7.57;;;;;;;18.59;51.59;98440.19;4997507;28;20036;-46
2023/06/15 01:27:39;;;;;;;6.53;4.95;;;;;;;18.68;51.42;98443.97;4995934;28;20042;-46
2023/06/15 01:30:07;;;;;;;9.68;6.07;;;;;;;18.54;51.95;98434.84;5013640;28;20030;-46
2023/06/15 01:32:34;;;;;;;23.80;15.02;;;;;;;18.67;52.99;98446.88;5013390;28;20033;-46
2023/06/15 01:35:00;;;;;;;12.13;7.00;;;;;;;19.08;52.05;98436.44;4995657;28;20088;-46
2023/06/15 01:37:26;;;;;;;11.52;9.43;;;;;;;19.30;51.00;98442.34;4995638;28;20040;-46
2023/06/15 01:39:52;;;;;;;12.95;6.90;;;;;;;19.29;50.57;98451.38;5013249;28;20105;-46
2023/06/15 01:42:18;;;;;;;19.67;14.55;;;;;;;19.11;50.64;98455.31;4995726;28;20060;-46
2023/06/15 01:44:45;;;;;;;10.35;7.80;;;;;;;19.17;51.23;98458.78;5013190;28;20433;-47
2023/06/15 01:47:11;;;;;;;17.17;10.45;;;;;;;19.22;51.44;98450.03;4995389;28;20056;-46
2023/06/15 01:49:38;;;;;;;13.52;7.72;;;;;;;19.42;51.05;98454.56;5013017;28;20492;-46
2023/06/15 01:52:04;;;;;;;17.48;12.43;;;;;;;19.51;50.98;98453.00;4995043;28;20060;-46
2023/06/15 01:54:30;;;;;;;23.08;12.30;;;;;;;19.60;50.51;98451.44;4995347;28;20026;-46
2023/06/15 01:56:56;;;;;;;9.80;5.30;;;;;;;19.55;50.53;98462.06;5012945;28;20030;-46
2023/06/15 01:59:21;;;;;;;15.77;8.63;;;;;;;19.41;50.20;98463.63;4995270;28;20041;-46
2023/06/15 02:01:47;;;;;;;16.80;13.15;;;;;;;19.12;50.70;98464.91;5012918;28;20507;-46
2023/06/15 02:04:13;;;;;;;9.15;6.72;;;;;;;19.06;51.24;98467.81;5012846;28;20021;-46
2023/06/15 02:06:38;;;;;;;18.73;11.55;;;;;;;18.93;51.19;98464.59;5002604;28;20504;-46
2023/06/15 02:09:04;;;;;;;11.52;6.43;;;;;;;18.70;51.94;98465.75;5011424;28;20033;-46
2023/06/15 02:11:30;;;;;;;23.45;17.42;;;;;;;18.64;52.08;98469.47;5011476;28;20037;-46
2023/06/15 02:13:59;;;;;;;16.38;13.93;;;;;;;18.53;52.06;98465.13;5012567;28;20034;-46
2023/06/15 02:16:26;;;;;;;9.05;6.10;;;;;;;18.49;52.29;98472.84;5012639;28;20454;-46
2023/06/15 02:18:52;;;;;;;16.25;10.73;;;;;;;18.42;52.77;98479.44;5012588;28;20026;-46
2023/06/15 02:21:18;;;;;;;11.90;6.03;;;;;;;18.24;52.87;98467.38;5012771;28;20026;-46
2023/06/15 02:23:44;;;;;;;11.15;6.10;;;;;;;17.93;53.48;98467.94;4994997;28;20026;-46
2023/06/15 02:26:09;;;;;;;13.60;8.52;;;;;;;17.73;54.11;98468.53;5011146;28;20022;-46
2023/06/15 02:28:35;;;;;;;8.90;5.72;;;;;;;17.63;54.21;98476.41;5012577;28;20109;-46
2023/06/15 02:31:00;;;;;;;12.48;7.03;;;;;;;17.54;54.67;98475.25;5011113;28;20737;-46
2023/06/15 02:33:27;;;;;;;6.38;5.63;;;;;;;17.43;55.12;98473.56;5012419;28;20022;-46
2023/06/15 02:35:52;;;;;;;8.25;7.45;;;;;;;17.32;55.36;98475.28;5012237;28;20021;-46
2023/06/15 02:38:18;;;;;;;15.27;11.13;;;;;;;17.20;56.28;98478.06;5012313;28;20030;-46
2023/06/15 02:40:44;;;;;;;15.15;12.18;;;;;;;17.11;56.35;98477.72;5010975;28;20369;-46
2023/06/15 02:43:09;;;;;;;15.65;13.68;;;;;;;16.97;57.05;98485.25;5012160;28;20037;-46
2023/06/15 02:45:36;;;;;;;18.10;15.55;;;;;;;16.95;57.61;98479.41;5012226;28;20013;-46
2023/06/15 02:48:02;;;;;;;19.27;12.60;;;;;;;17.11;57.74;98476.94;5012074;28;20551;-46
2023/06/15 02:50:27;;;;;;;22.05;15.27;;;;;;;17.31;57.14;98473.72;5010854;28;20121;-46
2023/06/15 02:52:53;;;;;;;12.88;11.77;;;;;;;17.39;56.81;98472.47;5010772;28;20030;-46
2023/06/15 02:55:19;;;;;;;10.13;8.60;;;;;;;17.41;56.97;98481.78;5010721;28;20558;-47
2023/06/15 02:57:45;;;;;;;18.63;13.32;;;;;;;17.45;56.33;98482.06;5010814;28;20040;-46
2023/06/15 03:00:13;;;;;;;27.90;15.65;;;;;;;17.28;56.71;98479.50;5010779;28;20019;-46
2023/06/15 03:02:43;;;;;;;9.70;7.63;;;;;;;17.20;57.14;98475.44;5012251;28;20384;-46
2023/06/15 03:05:10;;;;;;;19.60;14.23;;;;;;;17.13;57.46;98478.28;5009925;28;20030;-46
2023/06/15 03:07:36;;;;;;;16.27;8.10;;;;;;;17.11;57.62;98488.34;5010393;28;20117;-46
2023/06/15 03:10:02;;;;;;;17.05;13.40;;;;;;;17.11;57.90;98492.84;5010535;28;20038;-46
2023/06/15 03:12:27;;;;;;;20.60;16.00;;;;;;;17.16;57.78;98495.53;5010626;28;20018;-46
2023/06/15 03:14:53;;;;;;;10.90;9.82;;;;;;;17.22;57.63;98493.75;5010624;28;20045;-46
2023/06/15 03:17:21;;;;;;;23.60;17.02;;;;;;;17.21;57.20;98500.13;5011901;28;20496;-46
2023/06/15 03:19:47;;;;;;;16.33;14.75;;;;;;;16.94;57.36;98501.66;5011887;28;20101;-46
2023/06/15 03:22:14;;;;;;;21.23;16.83;;;;;;;16.69;58.20;98503.94;5011820;28;20080;-46
2023/06/15 03:24:41;;;;;;;21.42;12.20;;;;;;;16.71;58.89;98500.00;5012094;28;20098;-46
2023/06/15 03:27:10;;;;;;;9.00;7.63;;;;;;;16.90;58.46;98502.38;5010701;28;20041;-46
2023/06/15 03:29:39;;;;;;;14.95;7.68;;;;;;;17.33;58.47;98508.75;5011778;28;20484;-46
2023/06/15 03:32:06;;;;;;;10.88;7.90;;;;;;;17.76;57.46;98502.53;5011674;28;20461;-46
2023/06/15 03:34:33;;;;;;;25.85;17.80;;;;;;;18.02;56.35;98515.28;5010423;28;20109;-46
2023/06/15 03:36:58;;;;;;;17.92;15.65;;;;;;;18.14;55.44;98513.25;5011710;28;20033;-46
2023/06/15 03:39:24;;;;;;;15.98;11.45;;;;;;;17.91;55.34;98509.09;5011649;28;20026;-46
2023/06/15 03:41:50;;;;;;;39.20;26.17;;;;;;;17.66;55.92;98517.56;5011557;28;20030;-46
2023/06/15 03:44:16;;;;;;;15.95;14.25;;;;;;;17.69;55.97;98519.72;5011694;28;20500;-46
2023/06/15 03:46:44;;;;;;;21.88;14.63;;;;;;;17.74;56.14;98523.22;5011559;28;20040;-46
2023/06/15 03:49:10;;;;;;;42.15;28.75;;;;;;;17.98;56.18;98530.91;5010257;28;20025;-46
2023/06/15 03:51:37;;;;;;;18.63;12.82;;;;;;;18.01;55.31;98529.59;5011501;28;20037;-46
2023/06/15 03:54:04;;;;;;;16.45;9.30;;;;;;;17.91;55.54;98533.78;5010337;28;20446;-46
2023/06/15 03:56:29;;;;;;;10.18;7.38;;;;;;;17.84;55.22;98527.84;4994026;28;20033;-46
2023/06/15 03:58:55;;;;;;;13.52;9.50;;;;;;;17.56;55.79;98536.84;5010189;28;20030;-46
2023/06/15 04:01:24;;;;;;;17.70;12.43;;;;;;;17.36;56.59;98529.44;5011516;28;20030;-47
2023/06/15 04:03:51;;;;;;;11.43;9.48;;;;;;;17.24;56.99;98534.88;5010178;28;20492;-46
2023/06/15 04:06:18;;;;;;;25.58;19.65;;;;;;;17.14;57.34;98545.38;5009480;28;20064;-47
2023/06/15 04:08:44;;;;;;;19.90;16.73;;;;;;;17.07;57.52;98547.41;5010367;28;20032;-46
2023/06/15 04:11:09;;;;;;;27.05;22.38;;;;;;;16.94;57.87;98541.44;5010432;28;20022;-46
2023/06/15 04:13:35;;;;;;;42.22;31.08;;;;;;;16.97;58.26;98543.56;5009129;28;20030;-46
2023/06/15 04:16:01;;;;;;;19.13;15.32;;;;;;;17.16;58.04;98545.91;5010317;28;20510;-46
2023/06/15 04:18:26;;;;;;;33.92;29.42;;;;;;;17.37;57.14;98555.72;5014047;28;20156;-46
2023/06/15 04:20:52;;;;;;;18.20;10.32;;;;;;;17.39;56.98;98555.50;5012635;28;20060;-46
2023/06/15 04:23:18;;;;;;;32.13;23.30;;;;;;;17.50;57.09;98561.72;5013580;28;20519;-46
2023/06/15 04:25:45;;;;;;;28.35;15.20;;;;;;;18.22;55.45;98554.47;5013611;28;20373;-46
2023/06/15 04:28:11;;;;;;;16.77;13.27;;;;;;;18.91;53.12;98562.44;5013693;28;20034;-46
2023/06/15 04:30:40;;;;;;;34.47;17.98;;;;;;;19.33;51.62;98558.88;5013663;28;20029;-46
2023/06/15 04:33:12;;;;;;;24.83;15.43;;;;;;;19.53;50.49;98563.47;5013397;28;20396;-46
2023/06/15 04:35:45;;;;;;;59.72;47.92;;;;;;;19.88;50.13;98561.19;5013685;28;20029;-46
2023/06/15 04:38:14;;;;;;;45.22;36.63;;;;;;;20.41;49.92;98569.75;5012300;28;20030;-46
2023/06/15 04:40:46;;;;;;;40.92;29.63;;;;;;;20.83;48.86;98574.00;5012328;28;20446;-46
2023/06/15 04:43:11;;;;;;;47.80;31.13;;;;;;;21.06;47.99;98569.91;5013384;28;20562;-46
2023/06/15 04:45:37;;;;;;;32.95;24.00;;;;;;;21.40;47.34;98576.50;5013272;28;20057;-46
2023/06/15 04:48:03;;;;;;;64.72;46.28;;;;;;;21.82;46.17;98577.91;5013103;28;20053;-46
2023/06/15 04:50:32;;;;;;;27.38;20.38;;;;;;;22.37;44.36;98575.13;5013149;28;20022;-47
2023/06/15 04:52:58;;;;;;;24.27;16.33;;;;;;;22.69;43.26;98571.88;5013113;28;20026;-46
2023/06/15 04:55:23;;;;;;;23.05;11.98;;;;;;;;;;5011797;28;20113;-46
2023/06/15 04:57:49;;;;;;;17.83;11.82;;;;;;;23.63;41.19;98570.56;5013001;28;20018;-47
2023/06/15 05:00:16;;;;;;;52.22;30.90;;;;;;;24.23;40.00;98572.69;5011744;28;20447;-46
2023/06/15 05:02:42;;;;;;;16.10;13.05;;;;;;;24.73;38.55;98570.25;5012976;28;20034;-47
2023/06/15 05:05:08;;;;;;;40.92;32.60;;;;;;;24.94;38.14;98559.91;5011619;28;20029;-46
2023/06/15 05:07:34;;;;;;;51.83;32.42;;;;;;;25.41;37.33;98571.34;4960443;28;1496937;-46
2023/06/15 05:10:00;;;;;;;35.78;14.35;;;;;;;25.84;36.84;98570.16;5012577;28;20040;-47
2023/06/15 05:12:26;;;;;;;21.38;13.23;;;;;;;25.96;36.02;98570.44;5013902;28;20499;-46
2023/06/15 05:14:51;;;;;;;35.42;24.90;;;;;;;25.96;36.05;98577.69;5013819;28;20089;-46
2023/06/15 05:17:17;;;;;;;39.13;26.88;;;;;;;26.56;35.39;98576.53;5012768;28;20030;-46
2023/06/15 05:19:43;;;;;;;115.63;97.72;;;;;;;27.22;34.47;98573.97;5012381;28;20021;-47
2023/06/15 05:22:08;;;;;;;99.30;69.75;;;;;;;27.82;33.10;98586.00;5013632;28;20500;-46
2023/06/15 05:24:34;;;;;;;64.78;51.60;;;;;;;28.21;32.54;98579.66;5012302;28;20080;-47
2023/06/15 05:27:02;;;;;;;71.97;41.35;;;;;;;28.82;32.16;98584.16;5012902;28;20033;-47
2023/06/15 05:29:28;;;;;;;35.80;20.10;;;;;;;29.45;30.43;98585.13;5013699;28;20021;-46
2023/06/15 05:31:59;;;;;;;40.33;29.50;;;;;;;29.80;30.23;98594.94;5012098;28;20389;-47
2023/06/15 05:34:26;;;;;;;40.03;34.47;;;;;;;30.40;29.57;98590.13;5013495;28;20080;-47
2023/06/15 05:36:51;;;;;;;71.93;64.18;;;;;;;30.55;29.39;98586.78;5013337;28;20042;-47
2023/06/15 05:39:17;;;;;;;25.48;22.75;;;;;;;30.46;28.87;98588.78;5013376;28;20075;-47
2023/06/15 05:41:43;;;;;;;52.47;35.83;;;;;;;30.63;28.78;98587.84;5013289;28;20033;-47
2023/06/15 05:44:08;;;;;;;20.17;15.68;;;;;;;30.70;28.01;98587.25;5013287;28;20120;-47
2023/06/15 05:46:34;;;;;;;26.40;17.70;;;;;;;30.68;28.17;98587.59;5011854;28;20461;-46
2023/06/15 05:48:59;;;;;;;32.35;17.90;;;;;;;30.30;28.43;98596.75;5013215;28;20018;-47
2023/06/15 05:51:25;;;;;;;47.03;39.03;;;;;;;29.75;29.56;98600.56;5013122;28;20022;-47
2023/06/15 05:53:51;;;;;;;32.53;27.80;;;;;;;30.01;29.44;98597.63;5011699;28;20030;-47
2023/06/15 05:56:16;;;;;;;51.15;42.53;;;;;;;30.84;28.01;98596.66;5013048;28;20029;-47
2023/06/15 05:58:43;;;;;;;44.13;32.00;;;;;;;32.02;26.44;98590.59;5012969;28;20053;-47
2023/06/15 06:01:08;;;;;;;48.78;27.58;;;;;;;32.97;25.77;98601.63;5011609;28;20037;-47
2023/06/15 06:03:35;;;;;;;31.98;17.02;;;;;;;33.70;24.21;98593.19;5012941;28;20101;-47
2023/06/15 06:06:02;;;;;;;55.72;11.80;;;;;;;34.43;23.08;98594.25;5011308;28;20038;-47
2023/06/15 06:08:27;;;;;;;26.48;12.25;;;;;;;35.25;22.39;98591.34;5012823;28;20044;-47
2023/06/15 06:10:53;;;;;;;17.95;9.77;;;;;;;35.84;21.67;98598.03;5012788;28;20026;-47
2023/06/15 06:13:18;;;;;;;24.13;6.00;;;;;;;36.10;21.21;98590.88;5011450;28;20034;-47
2023/06/15 06:15:44;;;;;;;31.05;7.15;;;;;;;36.38;21.27;98591.22;5012692;28;20026;-47
2023/06/15 06:18:10;;;;;;;15.43;4.97;;;;;;;36.45;20.51;98595.19;5012741;28;20030;-47
2023/06/15 06:20:36;;;;;;;19.42;5.70;;;;;;;36.44;19.84;98594.38;5012631;28;20018;-47
2023/06/15 06:23:03;;;;;;;16.40;6.47;;;;;;;36.65;20.05;98593.84;5012575;28;20134;-47
2023/06/15 06:25:29;;;;;;;20.77;5.60;;;;;;;36.65;19.54;98599.31;5012585;28;20062;-47
2023/06/15 06:27:54;;;;;;;9.88;4.65;;;;;;;36.58;19.93;98597.28;5011128;28;20034;-47
2023/06/15 06:30:20;;;;;;;21.85;5.50;;;;;;;36.43;20.51;98608.44;5012439;28;20026;-47
2023/06/15 06:32:46;;;;;;;18.80;7.35;;;;;;;36.27;20.08;98603.97;5012472;28;20021;-47
2023/06/15 06:35:11;;;;;;;7.57;4.70;;;;;;;36.29;19.98;98598.16;5012337;28;20041;-47
2023/06/15 06:37:37;;;;;;;11.48;5.07;;;;;;;36.11;19.74;98601.44;5012305;28;20065;-47
2023/06/15 06:40:03;;;;;;;10.23;5.40;;;;;;;36.33;19.82;98598.97;5011391;28;20133;-47
2023/06/15 06:42:29;;;;;;;44.50;7.38;;;;;;;36.21;20.50;98605.47;5011138;28;20109;-47
2023/06/15 06:44:56;;;;;;;17.30;6.07;;;;;;;36.45;19.73;98606.91;5012245;28;20014;-47
2023/06/15 06:47:21;;;;;;;38.70;7.72;;;;;;;36.70;19.27;98612.63;5010960;28;20057;-47
2023/06/15 06:49:47;;;;;;;24.80;8.43;;;;;;;37.07;19.48;98609.03;5012183;28;20025;-47
2023/06/15 06:52:13;;;;;;;75.40;24.40;;;;;;;36.33;19.98;98615.38;5012079;28;20025;-47
2023/06/15 06:54:39;;;;;;;128.73;13.48;;;;;;;35.56;20.75;98614.78;5012382;28;20021;-47
2023/06/15 06:57:05;;;;;;;58.10;7.03;;;;;;;34.91;21.36;98616.50;5010819;28;20520;-47
2023/06/15 06:59:30;;;;;;;160.18;14.30;;;;;;;33.96;22.35;98622.50;5012061;28;20028;-47
2023/06/15 07:01:56;;;;;;;58.55;7.63;;;;;;;34.84;21.66;98621.84;5012060;28;20400;-47
2023/06/15 07:04:22;;;;;;;29.65;6.13;;;;;;;35.54;20.55;98609.69;5012060;28;20395;-47
2023/06/15 07:06:47;;;;;;;48.78;7.03;;;;;;;35.48;20.65;98619.38;5010357;28;20042;-47
2023/06/15 07:09:13;;;;;;;42.95;7.10;;;;;;;35.20;21.15;98615.06;5010675;28;20068;-47
2023/06/15 07:11:39;;;;;;;22.25;6.03;;;;;;;35.89;20.55;98627.72;5011933;28;20050;-47
2023/06/15 07:14:04;;;;;;;52.15;6.95;;;;;;;36.44;20.43;98618.97;5012001;28;20374;-47
2023/06/15 07:16:30;;;;;;;22.90;5.90;;;;;;;36.31;20.05;98621.19;5012163;28;20018;-47
2023/06/15 07:18:57;;;;;;;10.60;5.82;;;;;;;36.02;20.22;98619.28;5010561;28;20404;-47
2023/06/15 07:21:22;;;;;;;14.50;4.95;;;;;;;36.01;20.36;98623.97;5010702;28;20109;-47
2023/06/15 07:23:48;;;;;;;18.42;5.70;;;;;;;35.82;20.73;98633.09;5011878;28;20064;-47
2023/06/15 07:26:14;;;;;;;15.23;6.20;;;;;;;35.93;20.52;98630.50;5011825;28;20025;-47
2023/06/15 07:28:40;;;;;;;11.60;5.53;;;;;;;36.23;20.56;98629.72;5010445;28;20491;-47
2023/06/15 07:31:05;;;;;;;12.68;6.05;;;;;;;36.36;20.14;98631.81;5011818;28;20029;-47
2023/06/15 07:33:31;;;;;;;27.60;6.00;;;;;;;36.53;20.53;98632.38;5011794;28;20026;-47
2023/06/15 07:35:57;;;;;;;19.73;6.70;;;;;;;36.52;20.22;98625.31;5011783;28;20026;-47
2023/06/15 07:38:22;;;;;;;14.25;5.50;;;;;;;36.29;20.21;98634.47;5011756;28;20491;-47
2023/06/15 07:40:48;;;;;;;9.90;5.10;;;;;;;36.05;20.55;98627.53;5011650;28;20034;-47
2023/06/15 07:43:14;;;;;;;13.38;5.78;;;;;;;36.43;20.57;98627.59;5010396;28;20117;-47
2023/06/15 07:45:41;;;;;;;10.18;5.13;;;;;;;37.08;19.84;98631.69;5011870;28;20022;-47
2023/06/15 07:48:07;;;;;;;13.40;5.38;;;;;;;37.43;19.25;98625.72;5011558;28;20471;-46
2023/06/15 07:50:33;;;;;;;12.75;5.45;;;;;;;37.90;18.97;98625.97;5011141;28;20500;-47
2023/06/15 07:52:59;;;;;;;17.50;6.65;;;;;;;38.33;18.83;98632.38;5015391;28;20492;-47
2023/06/15 07:55:25;;;;;;;6.97;5.03;;;;;;;38.61;18.58;98627.38;5015242;28;20022;-47
2023/06/15 07:57:50;;;;;;;10.75;5.10;;;;;;;38.42;18.18;98628.50;5015195;28;20030;-47
2023/06/15 08:00:16;;;;;;;15.18;6.07;;;;;;;38.84;18.31;98635.22;5013876;28;20026;-47
2023/06/15 08:02:42;;;;;;;23.92;6.40;;;;;;;39.39;17.71;98626.56;5015344;28;20034;-47
2023/06/15 08:05:08;;;;;;;20.90;6.30;;;;;;;39.96;17.31;98628.41;5013964;28;20470;-47
2023/06/15 08:07:34;;;;;;;37.05;7.00;;;;;;;40.43;16.90;98630.91;5014759;28;20464;-49
2023/06/15 08:10:02;;;;;;;152.90;17.27;;;;;;;40.71;17.09;98636.22;5014994;28;20022;-49
2023/06/15 08:12:27;;;;;;;118.57;10.45;;;;;;;40.98;16.76;98623.84;4997293;28;20587;-50
2023/06/15 08:14:54;;;;;;;73.15;8.55;;;;;;;41.35;15.79;98627.84;5014888;28;20109;-49
2023/06/15 08:17:20;;;;;;;66.38;8.07;;;;;;;41.37;15.89;98622.72;5014861;28;20026;-49
2023/06/15 08:19:45;;;;;;;20.67;6.78;;;;;;;41.81;15.40;98634.84;5014878;28;20381;-49
2023/06/15 08:22:11;;;;;;;49.97;6.57;;;;;;;41.75;15.27;98631.75;4997189;28;20034;-50
2023/06/15 08:24:37;;;;;;;119.90;8.93;;;;;;;41.67;15.34;98636.56;5014732;28;20484;-49
2023/06/15 08:27:03;;;;;;;256.80;18.20;;;;;;;41.86;15.34;98631.63;5014606;28;20132;-50
2023/06/15 08:29:29;;;;;;;41.97;7.55;;;;;;;42.44;14.82;98631.66;5014582;28;20018;-50
2023/06/15 08:31:55;;;;;;;60.25;7.88;;;;;;;43.03;14.95;98631.13;5014601;28;20097;-50
2023/06/15 08:34:21;;;;;;;16.27;5.03;;;;;;;43.43;13.98;98628.47;5014872;28;20124;-50
2023/06/15 08:36:47;;;;;;;12.23;4.95;;;;;;;43.49;13.97;98624.00;5014539;28;20407;-50
2023/06/15 08:39:12;;;;;;;18.05;4.75;;;;;;;43.72;13.91;98629.91;4996848;28;20018;-50
2023/06/15 08:41:38;;;;;;;31.98;8.40;;;;;;;43.90;13.91;98629.53;4980596;28;20121;-50
2023/06/15 08:44:07;;;;;;;21.00;5.13;;;;;;;43.83;13.59;98628.50;5014412;28;20022;-50
2023/06/15 08:46:33;;;;;;;27.38;6.32;;;;;;;44.01;13.80;98627.31;5014362;28;20026;-50
2023/06/15 08:49:00;;;;;;;15.93;5.18;;;;;;;44.06;13.89;98632.34;5014465;28;20381;-50
2023/06/15 08:51:25;;;;;;;52.80;8.27;;;;;;;44.15;13.54;98626.25;5014445;28;20393;-50
2023/06/15 08:53:56;;;;;;;10.07;4.25;;;;;;;44.44;13.43;98623.63;4996632;28;20522;-50
2023/06/15 08:56:22;;;;;;;10.27;4.43;;;;;;;44.72;13.26;98626.94;4996561;28;20119;-50
2023/06/15 08:58:50;;;;;;;58.33;7.38;;;;;;;44.65;13.32;98620.38;5014186;28;20480;-50
2023/06/15 09:01:24;;;;;;;187.20;15.85;;;;;;;44.54;13.38;98617.06;4996426;28;20032;-50
2023/06/15 09:03:54;;;;;;;26.27;6.15;;;;;;;44.63;13.57;98624.75;5013148;28;20034;-50
2023/06/15 09:06:21;;;;;;;18.13;4.57;;;;;;;44.49;13.12;98623.13;5013657;28;20087;-50
2023/06/15 09:08:51;;;;;;;15.43;4.63;;;;;;;44.14;13.32;98619.16;5013839;28;20026;-50
2023/06/15 09:11:18;;;;;;;10.63;4.15;;;;;;;43.91;13.64;98620.81;5014562;28;20018;-50
2023/06/15 09:13:45;;;;;;;25.77;5.18;;;;;;;43.83;13.89;98625.72;4996263;28;20041;-50
2023/06/15 09:16:11;;;;;;;30.58;6.38;;;;;;;43.68;14.17;98627.97;5013841;28;20369;-50
2023/06/15 09:18:48;;;;;;;38.05;7.03;;;;;;;43.44;13.98;98618.19;5013756;28;20026;-50
2023/06/15 09:21:15;;;;;;;26.80;6.10;;;;;;;43.59;13.60;98624.19;5013641;28;20022;-49
2023/06/15 09:23:46;;;;;;;28.25;8.27;;;;;;;43.80;13.76;98612.75;5013943;28;20135;-50
2023/06/15 09:26:26;;;;;;;52.75;7.97;;;;;;;44.09;13.48;98620.44;5013850;28;20056;-50
2023/06/15 09:28:56;;;;;;;45.42;7.35;;;;;;;44.44;12.80;98618.84;5013438;28;20030;-50
2023/06/15 09:31:35;;;;;;;27.58;5.50;;;;;;;43.61;13.81;98616.28;5013415;28;20080;-50
2023/06/15 09:34:09;;;;;;;28.10;5.80;;;;;;;43.54;13.68;98616.41;5013423;28;20030;-49
2023/06/15 09:36:36;;;;;;;24.17;5.53;;;;;;;43.75;13.39;98616.03;5013437;28;20109;-49
2023/06/15 09:39:05;;;;;;;20.90;4.85;;;;;;;44.05;13.35;98616.94;5013249;28;20516;-49
2023/06/15 09:41:33;;;;;;;23.63;5.38;;;;;;;43.95;13.43;98621.53;5013321;28;20018;-50
2023/06/15 09:44:02;;;;;;;12.93;4.65;;;;;;;43.99;13.19;98629.72;5013336;28;20081;-50
2023/06/15 09:46:28;;;;;;;22.08;5.43;;;;;;;43.88;13.49;98616.13;5013177;28;20024;-50
2023/06/15 09:48:54;;;;;;;24.40;4.93;;;;;;;43.92;13.65;98619.59;5013055;28;20028;-50
2023/06/15 09:51:20;;;;;;;22.52;5.53;;;;;;;43.94;13.27;98628.25;5013131;28;20501;-50
2023/06/15 09:53:48;;;;;;;13.40;4.45;;;;;;;44.18;13.49;98622.63;5013161;28;20041;-50
2023/06/15 09:56:15;;;;;;;16.35;4.50;;;;;;;44.07;13.46;98626.41;4995815;28;20514;-50
2023/06/15 09:58:41;;;;;;;16.00;5.32;;;;;;;43.92;14.03;98625.13;4995391;28;20407;-50
2023/06/15 10:01:10;;;;;;;16.92;4.40;;;;;;;43.73;13.84;98623.97;5012943;28;20018;-50
2023/06/15 10:03:38;;;;;;;48.10;11.07;;;;;;;43.37;14.58;98624.63;5012786;28;20101;-50
2023/06/15 10:06:16;;;;;;;17.30;4.72;;;;;;;43.34;14.14;98613.66;5012640;28;20040;-49
2023/06/15 10:08:44;;;;;;;40.78;6.80;;;;;;;43.30;14.64;98622.00;5012689;28;20534;-50
2023/06/15 10:11:11;;;;;;;8.82;4.15;;;;;;;43.61;14.36;98616.28;5012813;28;20029;-50
2023/06/15 10:13:48;;;;;;;12.38;4.30;;;;;;;43.94;14.13;98622.72;5012442;28;20026;-50
2023/06/15 10:16:16;;;;;;;6.78;4.95;;;;;;;43.52;14.00;98616.06;5012730;28;20112;-50
2023/06/15 10:18:45;;;;;;;15.10;7.22;;;;;;;43.04;14.65;98623.63;4995000;28;20200;-50
2023/06/15 10:21:23;;;;;;;9.63;4.80;;;;;;;42.93;14.40;98615.53;5012527;28;20022;-50
2023/06/15 10:23:53;;;;;;;23.05;4.85;;;;;;;43.31;13.99;98609.75;5012861;28;20053;-50
2023/06/15 10:26:20;;;;;;;5.55;3.72;;;;;;;43.60;13.78;98604.44;4994862;28;20049;-50
2023/06/15 10:28:58;;;;;;;13.75;4.03;;;;;;;43.54;12.75;98597.06;5012363;28;20029;-49
2023/06/15 10:31:43;;;;;;;13.55;4.30;;;;;;;43.31;13.24;98601.47;4994847;28;20081;-49
2023/06/15 10:34:19;;;;;;;20.95;4.30;;;;;;;43.23;13.24;98600.78;5012475;28;20033;-50
2023/06/15 10:36:55;;;;;;;14.48;3.72;;;;;;;43.10;13.07;98605.38;4994769;28;20140;-49
2023/06/15 10:39:49;;;;;;;8.32;3.72;;;;;;;42.62;13.31;98595.50;5012330;28;20068;-49
2023/06/15 10:42:15;;;;;;;22.30;4.32;;;;;;;42.09;13.37;98597.88;5008958;28;20049;-49
2023/06/15 10:44:41;;;;;;;18.90;5.50;;;;;;;41.84;13.23;98596.19;5012327;28;20488;-49
2023/06/15 10:47:08;;;;;;;13.52;4.28;;;;;;;41.68;13.65;98596.03;4994462;28;20400;-49
2023/06/15 10:49:34;;;;;;;13.57;4.20;;;;;;;41.68;13.72;98590.50;4994464;28;20026;-49
2023/06/15 10:52:04;;;;;;;30.92;12.13;;;;;;;41.12;14.56;98594.22;4994736;28;20030;-49
2023/06/15 10:54:30;;;;;;;12.65;3.53;;;;;;;40.76;13.92;98590.22;5012371;28;20022;-48
2023/06/15 10:56:57;;;;;;;10.77;4.55;;;;;;;40.42;14.06;98594.38;4994424;28;20583;-49
2023/06/15 10:59:47;;;;;;;9.88;3.30;;;;;;;40.25;14.21;98590.53;5012290;28;20049;-48
2023/06/15 11:02:28;;;;;;;13.15;3.78;;;;;;;40.41;14.02;98581.03;5012000;28;20034;-49
2023/06/15 11:05:01;;;;;;;11.05;4.13;;;;;;;40.43;13.72;98584.16;4994330;28;20032;-48
2023/06/15 11:07:27;;;;;;;;;;;;;;;40.39;13.40;98581.44;5012172;28;20056;-48
2023/06/15 11:10:22;;;;;;;24.90;6.10;;;;;;;40.05;14.03;98582.03;5011983;28;19914;-49
2023/06/15 11:13:00;;;;;;;24.40;6.63;;;;;;;39.75;14.25;98588.03;5007533;28;20066;-49
2023/06/15 11:15:32;;;;;;;30.00;8.52;;;;;;;39.57;14.11;98579.88;5012144;28;20046;-49
2023/06/15 11:18:00;;;;;;;22.85;6.63;;;;;;;39.86;14.44;98582.47;4994692;28;20053;-49
2023/06/15 11:20:47;;;;;;;26.75;6.45;;;;;;;40.37;14.03;98585.75;5011847;28;20026;-48
2023/06/15 11:23:23;;;;;;;28.25;7.47;;;;;;;40.70;13.54;98576.88;5011891;28;20116;-49
2023/06/15 11:25:54;;;;;;;19.80;5.40;;;;;;;40.61;13.41;98587.56;5013040;28;20040;-49